Time;durP1;ratioP1;P1;durP2;ratioP2;P2;SDS_P1;SDS_P2;PMS_P1;PMS_P2;Temp;Humidity;BMP_temperature;BMP_pressure;BME280_temperature;BME280_humidity;BME280_pressure;Samples;Min_cycle;Max_cycle;Signal;HPM_P1;HPM_P2
2023/09/08 00:02:10;;;;;;;7.68;5.57;;;18.70;99.90;;;;;;5044881;28;20189;-74
2023/09/08 00:04:35;;;;;;;10.20;5.38;;;18.60;99.90;;;;;;5064830;28;20479;-74
2023/09/08 00:07:01;;;;;;;8.10;5.97;;;18.60;99.90;;;;;;5064580;28;20097;-74
2023/09/08 00:09:27;;;;;;;9.13;5.70;;;18.60;99.90;;;;;;5064684;28;20068;-74
2023/09/08 00:11:54;;;;;;;8.50;5.45;;;18.60;99.90;;;;;;5062953;28;20056;-74
2023/09/08 00:14:20;;;;;;;8.13;5.30;;;18.50;99.90;;;;;;5064866;28;20068;-74
2023/09/08 00:16:46;;;;;;;11.07;5.43;;;18.50;99.90;;;;;;5062598;28;20075;-76
2023/09/08 00:19:11;;;;;;;6.97;5.32;;;18.50;99.90;;;;;;5063295;28;20410;-74
2023/09/08 00:21:37;;;;;;;8.90;6.25;;;18.50;99.90;;;;;;5063868;28;20430;-73
2023/09/08 00:24:04;;;;;;;8.55;5.93;;;18.40;99.90;;;;;;5064600;28;20040;-74
2023/09/08 00:26:30;;;;;;;8.20;6.05;;;18.40;99.90;;;;;;5062488;28;20033;-73
2023/09/08 00:28:56;;;;;;;8.43;5.85;;;18.30;99.90;;;;;;5064272;28;20036;-74
2023/09/08 00:31:21;;;;;;;7.45;5.40;;;18.40;99.90;;;;;;5063911;28;20052;-74
2023/09/08 00:33:47;;;;;;;9.05;5.88;;;18.30;99.90;;;;;;5063632;28;20406;-74
2023/09/08 00:36:13;;;;;;;7.53;5.63;;;18.30;99.90;;;;;;5063173;28;20384;-73
2023/09/08 00:38:38;;;;;;;10.23;5.90;;;18.20;99.90;;;;;;5064545;28;20041;-76
2023/09/08 00:41:07;;;;;;;7.35;5.43;;;18.20;99.90;;;;;;5063859;28;20044;-74
2023/09/08 00:43:33;;;;;;;8.05;5.50;;;18.20;99.90;;;;;;5062557;28;20040;-74
2023/09/08 00:46:00;;;;;;;6.55;5.30;;;18.20;99.90;;;;;;5064126;28;20055;-73
2023/09/08 00:48:26;;;;;;;8.07;5.25;;;18.20;99.90;;;;;;5062626;28;20044;-73
2023/09/08 00:50:52;;;;;;;8.70;6.30;;;18.20;99.90;;;;;;5062264;28;20043;-74
2023/09/08 00:53:18;;;;;;;7.45;5.50;;;18.10;99.90;;;;;;5062616;28;20437;-74
2023/09/08 00:55:44;;;;;;;8.57;5.35;;;18.10;99.90;;;;;;5063974;28;20088;-74
2023/09/08 00:58:11;;;;;;;7.97;6.07;;;18.10;99.90;;;;;;5063259;28;20076;-73
2023/09/08 01:00:37;;;;;;;7.28;5.45;;;18.10;99.90;;;;;;5064049;28;20445;-72
2023/09/08 01:03:03;;;;;;;8.13;5.85;;;18.10;99.90;;;;;;5062588;28;20064;-72
2023/09/08 01:05:29;;;;;;;7.55;5.95;;;18.10;99.90;;;;;;5062189;28;20082;-74
2023/09/08 01:07:56;;;;;;;8.43;5.68;;;18.00;99.90;;;;;;5063614;28;20051;-73
2023/09/08 01:10:23;;;;;;;8.48;5.88;;;18.00;99.90;;;;;;5063236;28;20070;-74
2023/09/08 01:12:49;;;;;;;7.28;5.53;;;18.00;99.90;;;;;;5063114;28;20053;-74
2023/09/08 01:15:14;;;;;;;7.82;5.60;;;18.00;99.90;;;;;;5063429;28;20051;-74
2023/09/08 01:17:40;;;;;;;12.80;5.80;;;18.00;99.90;;;;;;5062805;28;20513;-74
2023/09/08 01:20:21;;;;;;;10.70;5.93;;;18.00;99.90;;;;;;5063405;28;20398;-74
2023/09/08 01:23:22;;;;;;;8.68;6.40;;;18.00;99.90;;;;;;5060649;28;20036;-73
2023/09/08 01:25:54;;;;;;;9.23;5.45;;;17.90;99.90;;;;;;5058835;28;20056;-74
2023/09/08 01:28:21;;;;;;;8.93;5.82;;;17.90;99.90;;;;;;5063571;28;20045;-74
2023/09/08 01:30:48;;;;;;;11.10;5.32;;;17.90;99.90;;;;;;5063562;28;20115;-74
2023/09/08 01:33:14;;;;;;;10.45;6.32;;;17.80;99.90;;;;;;5062359;28;20048;-73
2023/09/08 01:35:40;;;;;;;9.38;6.40;;;17.80;99.90;;;;;;5063161;28;20090;-74
2023/09/08 01:38:05;;;;;;;7.75;4.93;;;17.80;99.90;;;;;;5063283;28;20049;-73
2023/09/08 01:40:31;;;;;;;7.13;5.30;;;17.80;99.90;;;;;;5062679;28;20044;-73
2023/09/08 01:42:56;;;;;;;7.63;5.53;;;17.70;99.90;;;;;;5063559;28;20055;-74
2023/09/08 01:45:22;;;;;;;7.43;5.05;;;17.70;99.90;;;;;;5062832;28;20434;-74
2023/09/08 01:47:47;;;;;;;6.50;4.65;;;17.70;99.90;;;;;;5062399;28;20119;-74
2023/09/08 01:50:14;;;;;;;11.85;5.72;;;17.70;99.90;;;;;;5062843;28;20041;-74
2023/09/08 01:52:40;;;;;;;7.53;5.13;;;17.70;99.90;;;;;;5061874;28;20048;-73
2023/09/08 01:55:07;;;;;;;11.93;6.68;;;17.60;99.90;;;;;;5066412;28;20402;-74
2023/09/08 01:57:33;;;;;;;10.10;6.00;;;17.60;99.90;;;;;;5066794;28;20449;-74
2023/09/08 01:59:58;;;;;;;9.30;5.43;;;17.60;99.90;;;;;;5065495;28;20147;-74
2023/09/08 02:02:24;;;;;;;8.57;5.55;;;17.60;99.90;;;;;;5065875;28;20049;-74
2023/09/08 02:04:49;;;;;;;10.38;5.53;;;17.60;99.90;;;;;;5066960;28;20051;-74
2023/09/08 02:07:15;;;;;;;7.55;5.90;;;17.60;99.90;;;;;;5066959;28;20107;-75
2023/09/08 02:09:42;;;;;;;8.65;5.68;;;17.50;99.90;;;;;;5066614;28;20094;-74
2023/09/08 02:12:07;;;;;;;9.43;6.50;;;17.50;99.90;;;;;;5066939;28;20117;-74
2023/09/08 02:14:33;;;;;;;8.38;5.63;;;17.50;99.90;;;;;;5048926;28;20036;-74
2023/09/08 02:16:58;;;;;;;8.82;5.97;;;17.50;99.90;;;;;;5065458;28;20048;-74
2023/09/08 02:19:24;;;;;;;8.73;5.95;;;17.40;99.90;;;;;;5067103;28;20040;-74
2023/09/08 02:21:50;;;;;;;6.55;5.72;;;17.40;99.90;;;;;;5066581;28;20048;-75
2023/09/08 02:24:15;;;;;;;8.85;6.20;;;17.40;99.90;;;;;;5066118;28;20402;-74
2023/09/08 02:26:41;;;;;;;7.75;6.07;;;17.40;99.90;;;;;;5066821;28;20044;-74
2023/09/08 02:29:07;;;;;;;8.55;5.97;;;17.40;99.90;;;;;;5065630;28;20041;-74
2023/09/08 02:31:33;;;;;;;7.20;5.85;;;17.30;99.90;;;;;;5065194;28;20173;-74
2023/09/08 02:33:58;;;;;;;7.32;5.35;;;17.30;99.90;;;;;;5066275;28;20305;-74
2023/09/08 02:36:27;;;;;;;8.32;5.78;;;17.30;99.90;;;;;;5064788;28;20051;-75
2023/09/08 02:38:56;;;;;;;7.88;5.95;;;17.30;99.90;;;;;;5065986;28;20040;-74
2023/09/08 02:41:22;;;;;;;7.45;5.55;;;17.30;99.90;;;;;;5066209;28;20454;-74
2023/09/08 02:43:48;;;;;;;9.68;6.90;;;17.30;99.90;;;;;;5065076;28;20036;-75
2023/09/08 02:46:14;;;;;;;8.85;5.57;;;17.30;99.90;;;;;;5064551;28;20566;-74
2023/09/08 02:48:40;;;;;;;10.35;6.47;;;17.30;99.90;;;;;;5065538;28;20041;-75
2023/09/08 02:51:05;;;;;;;9.77;6.28;;;17.30;99.90;;;;;;5066384;28;20037;-74
2023/09/08 02:53:31;;;;;;;10.30;6.00;;;17.20;99.90;;;;;;5064633;28;20372;-74
2023/09/08 02:55:58;;;;;;;9.35;6.53;;;17.20;99.90;;;;;;5064826;28;20040;-74
2023/09/08 02:58:25;;;;;;;8.65;5.82;;;17.20;99.90;;;;;;5064904;28;20052;-75
2023/09/08 03:00:52;;;;;;;9.10;6.50;;;17.20;99.90;;;;;;5066216;28;20068;-74
2023/09/08 03:03:20;;;;;;;8.50;5.80;;;17.20;99.90;;;;;;5063907;28;20120;-74
2023/09/08 03:05:46;;;;;;;9.90;5.88;;;17.20;99.90;;;;;;5064192;28;20036;-74
2023/09/08 03:08:12;;;;;;;10.38;6.18;;;17.20;99.90;;;;;;5065882;28;20597;-75
2023/09/08 03:10:38;;;;;;;10.20;6.63;;;17.20;99.90;;;;;;5066204;28;20040;-74
2023/09/08 03:13:04;;;;;;;8.02;6.20;;;17.20;99.90;;;;;;5065484;28;20124;-74
2023/09/08 03:15:30;;;;;;;10.90;6.25;;;17.20;99.90;;;;;;5065758;28;20076;-74
2023/09/08 03:17:58;;;;;;;10.65;7.00;;;17.20;99.90;;;;;;5064464;28;20509;-74
2023/09/08 03:20:24;;;;;;;8.52;6.20;;;17.20;99.90;;;;;;5064493;28;20049;-74
2023/09/08 03:22:50;;;;;;;8.90;5.72;;;17.20;99.90;;;;;;5064291;28;20124;-74
2023/09/08 03:25:16;;;;;;;12.43;7.10;;;17.20;99.90;;;;;;5065209;28;20136;-74
2023/09/08 03:27:42;;;;;;;11.30;7.15;;;17.20;99.90;;;;;;5065184;28;20487;-74
2023/09/08 03:30:07;;;;;;;11.63;6.63;;;17.10;99.90;;;;;;5066053;28;20040;-74
2023/09/08 03:32:33;;;;;;;11.68;7.20;;;17.10;99.90;;;;;;5063009;28;20048;-74
2023/09/08 03:34:59;;;;;;;10.90;6.45;;;17.10;99.90;;;;;;5047114;28;20127;-74
2023/09/08 03:37:26;;;;;;;11.60;6.45;;;17.10;99.90;;;;;;5064360;28;20056;-74
2023/09/08 03:39:52;;;;;;;11.38;7.18;;;17.10;99.90;;;;;;5064121;28;20475;-74
2023/09/08 03:42:18;;;;;;;9.50;6.68;;;17.10;99.90;;;;;;5064625;28;20044;-74
2023/09/08 03:44:43;;;;;;;9.38;6.25;;;17.10;99.90;;;;;;5065083;28;20044;-75
2023/09/08 03:47:09;;;;;;;9.35;6.60;;;17.10;99.90;;;;;;5062811;28;20071;-75
2023/09/08 03:49:35;;;;;;;10.48;6.38;;;17.00;99.90;;;;;;5065296;28;20044;-74
2023/09/08 03:52:03;;;;;;;9.77;7.20;;;17.00;99.90;;;;;;5064858;28;20050;-75
2023/09/08 03:54:29;;;;;;;9.95;6.75;;;17.00;99.90;;;;;;5063439;28;20044;-74
2023/09/08 03:56:55;;;;;;;9.82;6.50;;;17.00;99.90;;;;;;5064899;28;20478;-74
2023/09/08 03:59:21;;;;;;;10.07;6.22;;;17.00;99.90;;;;;;5064444;28;20094;-73
2023/09/08 04:01:46;;;;;;;11.95;6.50;;;17.00;99.90;;;;;;5064080;28;20474;-73
2023/09/08 04:04:12;;;;;;;9.52;6.28;;;17.00;99.90;;;;;;5063721;28;20091;-73
2023/09/08 04:06:38;;;;;;;9.80;6.40;;;17.00;99.90;;;;;;5064864;28;20116;-74
2023/09/08 04:09:03;;;;;;;11.10;7.13;;;16.90;99.90;;;;;;5063424;28;20040;-73
2023/09/08 04:11:29;;;;;;;10.35;6.95;;;17.00;99.90;;;;;;5062978;28;20051;-74
2023/09/08 04:13:55;;;;;;;9.45;5.78;;;16.90;99.90;;;;;;5064630;28;20054;-74
2023/09/08 04:16:20;;;;;;;9.43;6.65;;;16.90;99.90;;;;;;5063263;28;20119;-74
2023/09/08 04:18:47;;;;;;;11.77;6.43;;;16.90;99.90;;;;;;5063992;28;20103;-73
2023/09/08 04:21:13;;;;;;;11.13;6.97;;;16.90;99.90;;;;;;5063066;28;20094;-73
2023/09/08 04:23:39;;;;;;;10.02;6.75;;;16.90;99.90;;;;;;5063817;28;20491;-74
2023/09/08 04:26:04;;;;;;;9.77;6.97;;;16.80;99.90;;;;;;5065157;28;20040;-73
2023/09/08 04:28:30;;;;;;;9.20;6.57;;;16.80;99.90;;;;;;5062277;28;20464;-74
2023/09/08 04:30:55;;;;;;;9.02;6.28;;;16.80;99.90;;;;;;5064156;28;20127;-74
2023/09/08 04:33:22;;;;;;;11.15;6.93;;;16.80;99.90;;;;;;5061701;28;20056;-74
2023/09/08 04:35:48;;;;;;;11.48;7.20;;;16.70;99.90;;;;;;5063503;28;20533;-73
2023/09/08 04:38:13;;;;;;;10.88;6.85;;;16.70;99.90;;;;;;5062715;28;20076;-73
2023/09/08 04:40:45;;;;;;;9.77;6.03;;;16.70;99.90;;;;;;5064283;28;20386;-74
2023/09/08 04:43:11;;;;;;;9.18;6.70;;;16.70;99.90;;;;;;5063724;28;20474;-73
2023/09/08 04:45:37;;;;;;;10.35;7.18;;;16.70;99.90;;;;;;5064130;28;20068;-73
2023/09/08 04:48:03;;;;;;;9.25;6.40;;;16.70;99.90;;;;;;5062915;28;20534;-73
2023/09/08 04:50:29;;;;;;;11.18;6.50;;;16.70;99.90;;;;;;5060566;28;20467;-74
2023/09/08 04:52:55;;;;;;;11.93;6.85;;;16.70;99.90;;;;;;5045519;28;20131;-74
2023/09/08 04:55:20;;;;;;;12.02;8.15;;;16.60;99.90;;;;;;5062690;28;20040;-74
2023/09/08 04:57:46;;;;;;;10.60;6.72;;;16.60;99.90;;;;;;5063166;28;20075;-74
2023/09/08 05:00:12;;;;;;;11.00;7.38;;;16.60;99.90;;;;;;5061992;28;20040;-73
2023/09/08 05:02:38;;;;;;;11.35;7.40;;;16.60;99.90;;;;;;5062792;28;20060;-73
2023/09/08 05:05:04;;;;;;;12.00;7.20;;;16.60;99.90;;;;;;5063781;28;20049;-73
2023/09/08 05:07:29;;;;;;;11.30;6.95;;;16.60;99.90;;;;;;5063420;28;20043;-73
2023/09/08 05:09:55;;;;;;;9.02;6.38;;;16.60;99.90;;;;;;5063340;28;20044;-74
2023/09/08 05:12:21;;;;;;;11.18;7.53;;;16.60;99.90;;;;;;5063291;28;20462;-74
2023/09/08 05:14:47;;;;;;;13.70;7.30;;;16.60;99.90;;;;;;5063198;28;20123;-73
2023/09/08 05:17:12;;;;;;;9.60;6.80;;;16.60;99.90;;;;;;5062368;28;20131;-74
2023/09/08 05:19:38;;;;;;;13.95;7.40;;;16.60;99.90;;;;;;5063897;28;20048;-73
2023/09/08 05:22:06;;;;;;;9.57;6.72;;;16.60;99.90;;;;;;5063605;28;20069;-73
2023/09/08 05:24:32;;;;;;;10.25;6.72;;;16.60;99.90;;;;;;5063319;28;20040;-74
2023/09/08 05:26:58;;;;;;;13.32;7.60;;;16.60;99.90;;;;;;5063258;28;20677;-73
2023/09/08 05:29:23;;;;;;;11.80;6.32;;;16.60;99.90;;;;;;5062580;28;20047;-73
2023/09/08 05:31:49;;;;;;;11.02;7.05;;;16.60;99.90;;;;;;5062368;28;20456;-73
2023/09/08 05:34:15;;;;;;;11.35;6.72;;;16.60;99.90;;;;;;5063395;28;20043;-73
2023/09/08 05:36:42;;;;;;;12.55;6.95;;;16.60;99.90;;;;;;5061772;28;20047;-73
2023/09/08 05:39:08;;;;;;;10.77;6.63;;;16.60;99.90;;;;;;5063494;28;20072;-71
2023/09/08 05:41:34;;;;;;;15.20;7.45;;;16.60;99.90;;;;;;5063658;28;20253;-72
2023/09/08 05:44:00;;;;;;;10.23;6.70;;;16.60;99.90;;;;;;5062354;28;20084;-72
2023/09/08 05:46:26;;;;;;;11.90;6.70;;;16.60;99.90;;;;;;5062092;28;20043;-72
2023/09/08 05:48:51;;;;;;;11.43;7.78;;;16.60;99.90;;;;;;5063304;28;20029;-73
2023/09/08 05:51:17;;;;;;;11.45;6.65;;;16.60;99.90;;;;;;5062058;28;20110;-73
2023/09/08 05:53:43;;;;;;;13.95;7.60;;;16.60;99.90;;;;;;5059948;28;20059;-73
2023/09/08 05:56:08;;;;;;;17.48;7.93;;;16.70;99.90;;;;;;5062158;28;20043;-74
2023/09/08 05:58:34;;;;;;;10.68;6.82;;;16.70;99.90;;;;;;5062058;28;20052;-73
2023/09/08 06:01:04;;;;;;;9.45;6.05;;;16.70;99.90;;;;;;5061198;28;20037;-72
2023/09/08 06:03:29;;;;;;;10.93;7.68;;;16.70;99.90;;;;;;5044230;28;20065;-76
2023/09/08 06:05:56;;;;;;;10.73;7.07;;;16.70;99.90;;;;;;5058453;28;20055;-74
2023/09/08 06:08:22;;;;;;;11.00;6.88;;;16.80;99.90;;;;;;5060178;28;20128;-73
2023/09/08 06:10:47;;;;;;;10.52;6.70;;;16.80;99.90;;;;;;5060570;28;20139;-73
2023/09/08 06:13:13;;;;;;;12.90;7.32;;;16.80;99.90;;;;;;5061792;28;20055;-73
2023/09/08 06:15:39;;;;;;;10.55;6.95;;;16.80;99.90;;;;;;5061392;28;20058;-74
2023/09/08 06:18:05;;;;;;;11.52;6.88;;;16.90;99.90;;;;;;5062658;28;20142;-72
2023/09/08 06:20:30;;;;;;;10.07;6.47;;;16.90;99.90;;;;;;5063299;28;20083;-73
2023/09/08 06:22:56;;;;;;;10.88;8.27;;;16.90;99.90;;;;;;5061191;28;20542;-72
2023/09/08 06:25:22;;;;;;;12.40;6.90;;;17.00;99.90;;;;;;5062195;28;20033;-72
2023/09/08 06:27:47;;;;;;;12.10;7.88;;;17.00;99.90;;;;;;5060403;28;20052;-75
2023/09/08 06:30:14;;;;;;;14.57;8.40;;;17.00;99.90;;;;;;5061476;28;20061;-73
2023/09/08 06:32:40;;;;;;;10.73;6.78;;;17.10;99.90;;;;;;5062488;28;20106;-75
2023/09/08 06:35:05;;;;;;;14.23;7.70;;;17.10;99.90;;;;;;5063122;28;20033;-74
2023/09/08 06:37:39;;;;;;;12.80;8.00;;;17.10;99.90;;;;;;5061522;28;20050;-73
2023/09/08 06:40:05;;;;;;;12.65;7.93;;;17.20;99.90;;;;;;5064453;28;20036;-75
2023/09/08 06:42:32;;;;;;;11.35;7.57;;;17.20;99.90;;;;;;5066603;28;20063;-73
2023/09/08 06:44:58;;;;;;;11.02;7.80;;;17.20;99.90;;;;;;5066166;28;20047;-73
2023/09/08 06:47:24;;;;;;;10.63;7.22;;;17.30;99.90;;;;;;5062755;28;20048;-73
2023/09/08 06:49:49;;;;;;;19.73;7.78;;;17.40;99.90;;;;;;5053980;28;20098;-73
2023/09/08 06:52:17;;;;;;;11.55;7.22;;;17.40;99.90;;;;;;5062976;28;20036;-72
2023/09/08 06:54:45;;;;;;;12.93;7.70;;;17.50;99.90;;;;;;5063721;28;20043;-72
2023/09/08 06:57:10;;;;;;;10.35;7.72;;;17.50;99.90;;;;;;5065154;28;20124;-73
2023/09/08 06:59:36;;;;;;;15.32;8.60;;;17.60;99.90;;;;;;5065148;28;20585;-73
2023/09/08 07:02:01;;;;;;;12.30;6.88;;;17.60;99.90;;;;;;5052546;28;20209;-74
2023/09/08 07:04:28;;;;;;;13.13;8.65;;;17.60;99.90;;;;;;5065539;28;20174;-72
2023/09/08 07:06:54;;;;;;;10.27;6.95;;;17.70;99.90;;;;;;5035560;28;20049;-73
2023/09/08 07:09:20;;;;;;;11.88;7.50;;;17.70;99.90;;;;;;5045621;28;20056;-72
2023/09/08 07:11:46;;;;;;;13.80;8.75;;;17.70;99.90;;;;;;5054276;28;20074;-72
2023/09/08 07:14:12;;;;;;;12.15;7.90;;;17.80;99.90;;;;;;5064849;28;20067;-72
2023/09/08 07:16:38;;;;;;;12.60;7.30;;;17.80;99.90;;;;;;5064520;28;20205;-74
2023/09/08 07:19:05;;;;;;;12.45;8.48;;;17.90;99.90;;;;;;5059896;28;20074;-73
2023/09/08 07:21:30;;;;;;;12.52;7.78;;;17.90;99.90;;;;;;5047103;28;20049;-73
2023/09/08 07:23:56;;;;;;;13.30;7.68;;;17.90;99.90;;;;;;5063866;28;20521;-72
2023/09/08 07:26:22;;;;;;;10.27;6.93;;;17.90;99.90;;;;;;5061138;28;20612;-74
2023/09/08 07:28:48;;;;;;;10.13;6.90;;;18.00;99.90;;;;;;5060629;28;20033;-72
2023/09/08 07:31:14;;;;;;;12.90;7.72;;;18.00;99.90;;;;;;5063408;28;20083;-73
2023/09/08 07:33:40;;;;;;;10.77;7.68;;;18.00;99.90;;;;;;5061959;28;20068;-72
2023/09/08 07:36:07;;;;;;;14.13;7.85;;;18.10;99.90;;;;;;5062569;28;20558;-73
2023/09/08 07:38:33;;;;;;;13.35;8.25;;;18.20;99.90;;;;;;5058047;28;20037;-75
2023/09/08 07:41:01;;;;;;;12.10;8.20;;;18.30;99.90;;;;;;5054060;28;20111;-74
2023/09/08 07:43:27;;;;;;;15.38;8.98;;;18.30;99.90;;;;;;5056214;28;20119;-74
2023/09/08 07:45:53;;;;;;;12.25;7.50;;;18.40;99.90;;;;;;5050353;28;20055;-72
2023/09/08 07:48:19;;;;;;;13.77;8.02;;;18.40;99.90;;;;;;5063910;28;20041;-75
2023/09/08 07:50:44;;;;;;;14.00;8.68;;;18.50;99.90;;;;;;5053267;28;20176;-75
2023/09/08 07:53:10;;;;;;;12.30;7.32;;;18.60;99.90;;;;;;5042974;28;20056;-75
2023/09/08 07:55:36;;;;;;;11.50;7.28;;;18.60;99.90;;;;;;5059096;28;20036;-74
2023/09/08 07:58:03;;;;;;;12.52;7.88;;;18.70;99.90;;;;;;5060939;28;20051;-73
2023/09/08 08:00:29;;;;;;;14.65;8.23;;;18.70;99.90;;;;;;5064803;28;20037;-76
2023/09/08 08:02:56;;;;;;;11.73;7.97;;;18.80;99.90;;;;;;5055063;28;20402;-74
2023/09/08 08:05:22;;;;;;;11.73;7.55;;;18.80;99.90;;;;;;5055614;28;20170;-73
2023/09/08 08:07:48;;;;;;;12.95;7.70;;;18.90;99.90;;;;;;5040043;28;20049;-74
2023/09/08 08:10:14;;;;;;;12.75;8.43;;;18.90;99.90;;;;;;5061792;28;20056;-74
2023/09/08 08:12:41;;;;;;;12.10;7.65;;;18.90;99.90;;;;;;5061357;28;20036;-73
2023/09/08 08:15:09;;;;;;;13.73;8.43;;;19.00;99.90;;;;;;5063747;28;20072;-74
2023/09/08 08:17:35;;;;;;;13.77;8.25;;;19.00;99.90;;;;;;5061586;28;20055;-73
2023/09/08 08:20:09;;;;;;;11.32;8.00;;;19.10;99.90;;;;;;5062234;28;20049;-74
2023/09/08 08:22:37;;;;;;;12.20;8.57;;;19.20;99.90;;;;;;5064054;28;20257;-75
2023/09/08 08:25:03;;;;;;;11.10;6.93;;;19.30;99.90;;;;;;5060206;28;20510;-74
2023/09/08 08:27:30;;;;;;;14.30;7.90;;;19.30;99.90;;;;;;5062002;28;20036;-74
2023/09/08 08:29:59;;;;;;;12.75;8.40;;;19.40;99.90;;;;;;5059695;28;20554;-75
2023/09/08 08:32:25;;;;;;;14.15;7.38;;;19.40;99.90;;;;;;5053529;28;20134;-74
2023/09/08 08:34:51;;;;;;;13.27;8.57;;;19.50;99.90;;;;;;5062579;28;20056;-75
2023/09/08 08:37:17;;;;;;;10.45;7.15;;;19.50;99.90;;;;;;5060449;28;20111;-73
2023/09/08 08:39:43;;;;;;;12.23;7.93;;;19.60;99.90;;;;;;5062936;28;20048;-75
2023/09/08 08:42:09;;;;;;;12.73;7.25;;;19.60;99.90;;;;;;5060570;28;20047;-76
2023/09/08 08:44:37;;;;;;;11.77;7.60;;;19.70;99.90;;;;;;5060750;28;20474;-76
2023/09/08 08:47:05;;;;;;;11.00;7.55;;;19.70;99.90;;;;;;5054451;28;20055;-75
2023/09/08 08:49:31;;;;;;;12.75;7.15;;;19.70;99.90;;;;;;5061117;28;20127;-76
2023/09/08 08:51:58;;;;;;;11.63;7.28;;;19.80;99.90;;;;;;5041531;28;20052;-76
2023/09/08 08:54:24;;;;;;;10.45;6.90;;;19.80;99.90;;;;;;5049184;28;20040;-75
2023/09/08 08:56:51;;;;;;;15.07;8.32;;;19.90;99.90;;;;;;5048133;28;20450;-76
2023/09/08 08:59:16;;;;;;;13.90;7.88;;;19.90;99.90;;;;;;5055945;28;20119;-76
2023/09/08 09:01:43;;;;;;;10.80;7.57;;;20.00;99.90;;;;;;5061116;28;20538;-76
2023/09/08 09:04:10;;;;;;;11.40;8.68;;;20.10;99.90;;;;;;5061015;28;20040;-77
2023/09/08 09:06:36;;;;;;;10.82;7.63;;;20.10;99.90;;;;;;5062380;28;20490;-76
2023/09/08 09:09:04;;;;;;;11.00;7.95;;;20.20;99.90;;;;;;5063651;28;20036;-75
2023/09/08 09:11:31;;;;;;;11.52;6.88;;;20.20;99.90;;;;;;5063205;28;20041;-76
2023/09/08 09:13:57;;;;;;;11.52;7.68;;;20.20;99.90;;;;;;5058850;28;20495;-76
2023/09/08 09:16:23;;;;;;;12.18;7.80;;;20.30;99.90;;;;;;5061757;28;20407;-76
2023/09/08 09:18:57;;;;;;;11.45;8.13;;;20.30;99.90;;;;;;5051983;28;20733;-76
2023/09/08 09:21:23;;;;;;;9.65;7.15;;;20.40;99.90;;;;;;5062854;28;20060;-78
2023/09/08 09:23:49;;;;;;;12.60;7.15;;;20.50;99.90;;;;;;5062214;28;20410;-78
2023/09/08 09:26:25;;;;;;;9.52;6.95;;;20.50;99.90;;;;;;5058332;28;20040;-79
2023/09/08 09:28:53;;;;;;;13.27;8.20;;;20.60;99.90;;;;;;5061649;28;20043;-77
2023/09/08 09:31:24;;;;;;;11.38;7.53;;;20.70;99.90;;;;;;5061590;28;20047;-76
2023/09/08 09:34:04;;;;;;;11.70;7.05;;;20.70;99.90;;;;;;5053507;28;20040;-78
2023/09/08 09:36:29;;;;;;;12.02;6.80;;;20.80;99.90;;;;;;5043844;28;20033;-76
2023/09/08 09:39:00;;;;;;;12.38;7.65;;;20.80;99.90;;;;;;5036064;28;20047;-77
2023/09/08 09:41:29;;;;;;;11.23;7.57;;;20.90;99.90;;;;;;5055270;28;20041;-78
2023/09/08 09:43:55;;;;;;;10.43;6.90;;;20.90;99.90;;;;;;5042487;28;20138;-76
2023/09/08 09:46:21;;;;;;;11.38;6.45;;;21.00;99.90;;;;;;5054568;28;20115;-77
2023/09/08 09:48:52;;;;;;;10.82;7.03;;;21.10;99.90;;;;;;5056665;28;20590;-79
2023/09/08 09:51:20;;;;;;;10.43;7.07;;;21.10;99.90;;;;;;5060824;28;20057;-78
2023/09/08 09:53:48;;;;;;;15.43;7.68;;;21.30;99.90;;;;;;5059511;28;20040;-78
2023/09/08 09:56:15;;;;;;;9.50;6.65;;;21.30;99.90;;;;;;5064122;28;20037;-78
2023/09/08 09:58:42;;;;;;;9.18;6.45;;;21.30;99.90;;;;;;5060069;28;20047;-78
2023/09/08 10:01:11;;;;;;;10.73;6.95;;;21.40;99.90;;;;;;5061195;28;20040;-77
2023/09/08 10:03:39;;;;;;;9.38;6.78;;;21.40;99.90;;;;;;5056568;28;20134;-77
2023/09/08 10:06:05;;;;;;;9.98;6.55;;;21.50;99.90;;;;;;5058996;28;20695;-77
2023/09/08 10:08:36;;;;;;;8.70;6.25;;;21.50;99.90;;;;;;5060011;28;20475;-77
2023/09/08 10:11:06;;;;;;;9.02;6.28;;;21.60;99.90;;;;;;5051731;28;20045;-77
2023/09/08 10:13:45;;;;;;;11.55;6.38;;;21.60;99.90;;;;;;5047720;28;20495;-77
2023/09/08 10:16:15;;;;;;;9.52;6.32;;;21.60;99.90;;;;;;5064582;28;20036;-77
2023/09/08 10:18:44;;;;;;;11.80;7.78;;;21.70;99.90;;;;;;5063608;28;20040;-78
2023/09/08 10:21:11;;;;;;;11.18;7.07;;;21.70;99.90;;;;;;5065117;28;20141;-77
2023/09/08 10:23:40;;;;;;;11.65;7.15;;;21.70;99.90;;;;;;5065753;28;20040;-77
2023/09/08 10:26:09;;;;;;;8.82;6.63;;;21.80;99.90;;;;;;5065029;28;20048;-77
2023/09/08 10:28:36;;;;;;;11.23;7.20;;;21.90;99.90;;;;;;5066640;28;20134;-77
2023/09/08 10:31:03;;;;;;;10.13;7.05;;;22.00;99.90;;;;;;5064503;28;20125;-77
2023/09/08 10:33:30;;;;;;;12.10;6.32;;;22.00;99.90;;;;;;5066121;28;20776;-77
2023/09/08 10:35:57;;;;;;;9.98;6.72;;;22.10;99.90;;;;;;5064921;28;20037;-77
2023/09/08 10:38:23;;;;;;;8.38;6.15;;;22.10;99.90;;;;;;5064585;28;20445;-77
2023/09/08 10:40:50;;;;;;;9.65;6.57;;;22.10;99.90;;;;;;5057530;28;20098;-77
2023/09/08 10:43:15;;;;;;;9.15;6.50;;;22.20;99.90;;;;;;5055200;28;20051;-78
2023/09/08 10:45:41;;;;;;;8.07;5.57;;;22.30;99.90;;;;;;5065462;28;20130;-77
2023/09/08 10:48:09;;;;;;;10.15;6.63;;;22.30;99.90;;;;;;5064600;28;20065;-77
2023/09/08 10:50:39;;;;;;;10.05;7.30;;;22.40;99.90;;;;;;5064462;28;20437;-77
2023/09/08 10:53:12;;;;;;;7.57;6.25;;;22.40;99.90;;;;;;5064458;28;20041;-77
2023/09/08 10:55:48;;;;;;;7.85;6.10;;;22.40;99.90;;;;;;5065891;28;20043;-77
2023/09/08 10:58:36;;;;;;;6.82;5.18;;;22.40;99.90;;;;;;5047514;28;20044;-78
2023/09/08 11:01:04;;;;;;;9.48;6.25;;;22.40;99.90;;;;;;5061292;28;20169;-77
2023/09/08 11:03:41;;;;;;;7.80;5.72;;;22.50;99.90;;;;;;5064053;28;20145;-77
2023/09/08 11:06:13;;;;;;;8.75;5.60;;;22.60;99.90;;;;;;5055276;28;20083;-77
2023/09/08 11:08:42;;;;;;;8.02;5.30;;;22.70;99.90;;;;;;5058380;28;20565;-76
2023/09/08 11:11:09;;;;;;;5.47;4.75;;;22.70;99.90;;;;;;5063269;28;20040;-76
2023/09/08 11:13:35;;;;;;;6.40;4.57;;;22.80;99.90;;;;;;5064323;28;20055;-77
2023/09/08 11:16:02;;;;;;;6.93;4.95;;;22.80;99.90;;;;;;5055333;28;20041;-76
2023/09/08 11:18:36;;;;;;;7.47;5.25;;;22.90;99.90;;;;;;5061596;28;20051;-75
2023/09/08 11:21:03;;;;;;;5.20;4.70;;;22.90;99.90;;;;;;5063785;28;20475;-74
2023/09/08 11:23:30;;;;;;;6.60;4.80;;;23.00;99.90;;;;;;5064273;28;20068;-75
2023/09/08 11:25:56;;;;;;;6.88;4.57;;;23.10;99.90;;;;;;5064411;28;20567;-78
2023/09/08 11:28:22;;;;;;;5.65;4.60;;;23.10;99.90;;;;;;5064672;28;20044;-79
2023/09/08 11:30:49;;;;;;;5.40;4.80;;;23.10;99.90;;;;;;5061284;28;20071;-77
2023/09/08 11:33:24;;;;;;;7.68;5.10;;;23.10;99.90;;;;;;5062401;28;20448;-75
2023/09/08 11:35:52;;;;;;;6.50;4.90;;;23.20;99.90;;;;;;5062949;28;20106;-76
2023/09/08 11:38:18;;;;;;;9.55;6.10;;;23.30;99.90;;;;;;5062248;28;20052;-75
2023/09/08 11:40:43;;;;;;;9.38;5.20;;;23.30;99.90;;;;;;5062929;28;20079;-75
2023/09/08 11:43:09;;;;;;;6.97;4.80;;;23.30;99.90;;;;;;5062248;28;20040;-77
2023/09/08 11:45:35;;;;;;;6.50;4.85;;;23.30;99.90;;;;;;5063846;28;20410;-76
2023/09/08 11:48:01;;;;;;;6.72;5.20;;;23.40;99.90;;;;;;5060278;28;20072;-76
2023/09/08 11:50:27;;;;;;;6.72;4.97;;;23.40;99.90;;;;;;5064124;28;20142;-77
2023/09/08 11:52:54;;;;;;;6.43;5.28;;;23.40;99.90;;;;;;5064760;28;20033;-77
2023/09/08 11:55:22;;;;;;;7.88;5.63;;;23.50;99.90;;;;;;5046751;28;20493;-77
2023/09/08 11:58:02;;;;;;;6.53;5.07;;;23.50;99.90;;;;;;5063152;28;20049;-76
2023/09/08 12:00:29;;;;;;;6.75;5.32;;;23.50;99.90;;;;;;5062959;28;20067;-76
2023/09/08 12:02:55;;;;;;;8.07;5.07;;;23.50;99.90;;;;;;5074917;28;20110;-76
2023/09/08 12:05:24;;;;;;;5.80;4.70;;;23.60;99.90;;;;;;5063516;28;20047;-76
2023/09/08 12:07:52;;;;;;;6.38;5.43;;;23.70;99.90;;;;;;5064233;28;20055;-76
2023/09/08 12:10:18;;;;;;;5.93;5.10;;;23.80;99.90;;;;;;5063697;28;20036;-76
2023/09/08 12:12:53;;;;;;;7.00;5.10;;;23.70;99.90;;;;;;5062979;28;20359;-78
2023/09/08 12:15:35;;;;;;;7.70;5.43;;;23.70;99.90;;;;;;5060510;28;20331;-76
2023/09/08 12:18:03;;;;;;;6.63;4.72;;;23.80;99.90;;;;;;5063666;28;20062;-77
2023/09/08 12:20:30;;;;;;;5.68;4.63;;;23.80;99.90;;;;;;5063089;28;20047;-75
2023/09/08 12:23:01;;;;;;;6.03;4.90;;;23.80;99.90;;;;;;5063514;28;20048;-76
2023/09/08 12:25:28;;;;;;;6.05;5.15;;;23.90;99.90;;;;;;5063404;28;20486;-76
2023/09/08 12:27:54;;;;;;;5.75;4.47;;;23.90;99.90;;;;;;5054241;28;20033;-76
2023/09/08 12:30:21;;;;;;;5.45;4.53;;;23.90;99.90;;;;;;5062919;28;20044;-76
2023/09/08 12:32:49;;;;;;;6.38;5.05;;;23.90;99.90;;;;;;5063109;28;20056;-76
2023/09/08 12:35:21;;;;;;;5.45;4.07;;;24.00;99.90;;;;;;5064103;28;20040;-76
2023/09/08 12:37:47;;;;;;;5.20;4.30;;;24.10;99.90;;;;;;5064281;28;20167;-76
2023/09/08 12:40:15;;;;;;;5.85;4.20;;;24.20;99.90;;;;;;5063087;28;20501;-75